• Join FlightAware (Why Join?)
  • Login
  • US Flag 
12:03AM EST


 

Airport Tracker/Info


-or-


 

Live Flight TrackerFlight Track Log ✈ DAL1076 ✈ 08-Aug-2014 ✈ KATL - KCLT

Flight Track Log - Related Links

Times and Time Zones

All times are in EDT time to prevent confusion due to time zone crossing. See the DAL1076 flight status page for this flight to view local times or setup timezone preferences in your user account.

Time Position Orientation Groundspeed Altitude Reporting Facility
EDT Latitude Longitude Course Direction KTS MPH feet Rate Location/Type
12:13AM 33.6333 -84.3833 64° Northeast 180 207 2,500  Level Atlanta TRACON
12:14AM 33.6333 -84.3000 90° East 265 305 5,100 2,364 Climbing Atlanta TRACON
12:15AM 33.6951 -83.9036 101° East  Level FlightAware Approximate
12:16AM 33.6662 -83.7308 101° East  Level FlightAware Approximate
12:16AM 33.7106 -84.0938 66° East  Level FlightAware Approximate
12:17AM 33.6782 -83.5644 64° Northeast  Level FlightAware Approximate
12:18AM 33.7427 -83.4061 64° Northeast  Level FlightAware Approximate
12:23AM 33.8893 -83.0437 64° Northeast  Level FlightAware Approximate
12:24AM 33.9530 -82.8846 64° Northeast  Level FlightAware Approximate
12:25AM 34.0180 -82.7261 62° Northeast  Level FlightAware Approximate
12:26AM 34.0816 -82.5670 70° East  Level FlightAware Approximate
12:27AM 34.1373 -82.4037 62° Northeast  Level FlightAware Approximate
12:28AM 34.2068 -82.2476 62° Northeast  Level FlightAware Approximate
12:29AM 34.2871 -82.1006 48° Northeast  Level FlightAware Approximate
12:30AM 34.3857 -81.9692 48° Northeast  Level FlightAware Approximate
12:31AM 34.4865 -81.8402 48° Northeast  Level FlightAware Approximate
12:32AM 34.5877 -81.7113 46° Northeast  Level FlightAware Approximate
12:33AM 34.6860 -81.5793 51° Northeast  Level FlightAware Approximate
12:34AM 34.7851 -81.4480 46° Northeast  Level FlightAware Approximate
12:35AM 34.8874 -81.3200 46° Northeast  Level FlightAware Approximate
12:36AM 34.9881 -81.1899 46° Northeast  Level FlightAware Approximate
12:37AM 35.0906 -81.0618 46° Northeast  Level FlightAware Approximate
12:38AM 35.2324 -81.0637 352° North  Level FlightAware Approximate
12:39AM 35.2137 -80.9491 356° North  Level Estimated
12:40AM 35.2137 -80.9491 North  Level Estimated
12:41AM 35.2137 -80.9491 158° South  Level Estimated
12:42AM 35.2137 -80.9491 158° South  Level Estimated
12:43AM 35.2137 -80.9491 158° South  Level Estimated
12:44AM 35.2137 -80.9491 158° South  Level Estimated
12:45AM 35.2137 -80.9491 158° South  Level Estimated
12:46AM 35.2137 -80.9491 158° South  Level Estimated
12:47AM 35.2137 -80.9491 158° South  Level Estimated
12:48AM 35.2137 -80.9491 158° South  Level Estimated
12:49AM 35.2137 -80.9491 158° South  Level Estimated
12:50AM 35.2137 -80.9491 158° South  Level Estimated
12:51AM 35.2137 -80.9491 158° South  Level Estimated